Time;durP1;ratioP1;P1;durP2;ratioP2;P2;SDS_P1;SDS_P2;PMS_P1;PMS_P2;Temp;Humidity;BMP_temperature;BMP_pressure;BME280_temperature;BME280_humidity;BME280_pressure;Samples;Min_cycle;Max_cycle;Signal;HPM_P1;HPM_P2
2022/01/25 00:08:28;;;;;;;12.43;6.37;;;;;;;2.78;100.00;102455.63;5019526;28;20224;-75
2022/01/25 00:25:04;;;;;;;9.93;5.33;;;;;;;2.76;100.00;102447.88;5016090;28;20200;-76
2022/01/25 00:27:47;;;;;;;10.87;5.27;;;;;;;2.77;100.00;102448.75;5023822;28;20232;-78
2022/01/25 00:33:05;;;;;;;13.77;5.40;;;;;;;2.75;100.00;102445.25;4986321;28;20745;-78
2022/01/25 00:35:32;;;;;;;11.90;5.33;;;;;;;2.74;100.00;102439.19;5018694;28;20819;-75
2022/01/25 00:37:58;;;;;;;11.03;4.70;;;;;;;2.75;100.00;102440.09;5022728;28;20226;-75
2022/01/25 00:40:26;;;;;;;10.83;5.40;;;;;;;2.74;100.00;102434.03;5019344;28;20587;-75
2022/01/25 00:42:52;;;;;;;13.27;6.10;;;;;;;2.74;100.00;102435.75;5019035;28;20220;-75
2022/01/25 00:45:20;;;;;;;10.00;5.07;;;;;;;2.73;100.00;102429.72;5024707;28;20211;-75
2022/01/25 00:47:50;;;;;;;9.77;5.07;;;;;;;2.73;100.00;102423.72;5020422;28;20611;-75
2022/01/25 00:50:16;;;;;;;9.60;5.17;;;;;;;2.73;100.00;102416.00;5019403;28;20216;-75
2022/01/25 00:55:31;;;;;;;9.73;5.03;;;;;;;2.72;100.00;102417.66;5021282;28;20208;-75
2022/01/25 00:57:57;;;;;;;10.33;5.13;;;;;;;2.72;100.00;102416.78;5020772;28;20299;-75
2022/01/25 01:00:24;;;;;;;12.97;5.37;;;;;;;2.71;100.00;102404.72;5023370;28;20231;-75
2022/01/25 01:02:50;;;;;;;10.37;4.97;;;;;;;2.71;100.00;102397.00;5022782;28;20210;-75
2022/01/25 01:05:17;;;;;;;11.30;5.47;;;;;;;2.71;100.00;102399.56;5028839;28;20204;-75
2022/01/25 01:07:43;;;;;;;12.20;5.60;;;;;;;2.70;100.00;102398.72;5020165;28;20209;-76
2022/01/25 01:10:16;;;;;;;12.33;5.90;;;;;;;2.68;100.00;102397.78;5024253;28;20312;-76
2022/01/25 01:13:18;;;;;;;9.83;5.23;;;;;;;2.67;100.00;102390.00;5028263;28;20707;-76
2022/01/25 01:15:53;;;;;;;10.13;5.47;;;;;;;2.68;100.00;102399.50;5021432;28;20226;-76
2022/01/25 01:29:27;;;;;;;12.00;5.57;;;;;;;2.67;100.00;102392.56;5024758;28;20223;-76
2022/01/25 01:32:06;;;;;;;9.73;5.23;;;;;;;2.66;100.00;102383.97;5024091;28;20755;-76
2022/01/25 01:35:25;;;;;;;7.80;4.60;;;;;;;2.68;100.00;102384.03;5024156;28;20567;-76
2022/01/25 01:38:09;;;;;;;10.93;5.20;;;;;;;2.67;100.00;102378.00;5022072;28;20266;-76
2022/01/25 01:41:01;;;;;;;11.87;5.90;;;;;;;2.68;100.00;102374.59;5023951;28;20674;-76
2022/01/25 01:43:30;;;;;;;10.03;5.40;;;;;;;2.69;100.00;102367.75;5021699;28;20223;-76
2022/01/25 01:46:06;;;;;;;12.20;5.80;;;;;;;2.71;100.00;102368.66;5026784;28;20202;-76
2022/01/25 01:48:37;;;;;;;12.40;5.73;;;;;;;2.72;100.00;102375.59;5025190;28;20314;-76
2022/01/25 01:51:08;;;;;;;15.60;6.37;;;;;;;2.73;100.00;102370.47;5022893;28;20234;-76
2022/01/25 01:53:36;;;;;;;10.70;6.33;;;;;;;2.74;100.00;102367.06;5022300;28;20437;-76
2022/01/25 01:56:03;;;;;;;13.37;6.87;;;;;;;2.73;100.00;102367.91;5024270;28;20201;-76
2022/01/25 01:58:30;;;;;;;18.00;7.20;;;;;;;2.76;100.00;102361.97;5022865;28;20204;-76
2022/01/25 02:00:58;;;;;;;17.03;6.60;;;;;;;2.75;100.00;102362.81;5027637;28;20228;-76
2022/01/25 02:03:24;;;;;;;13.20;6.80;;;;;;;2.77;100.00;102371.47;5023816;28;20196;-76
2022/01/25 02:05:51;;;;;;;14.50;7.17;;;;;;;2.77;100.00;102369.75;5020050;28;20200;-76
2022/01/25 02:08:17;;;;;;;15.40;7.37;;;;;;;2.78;100.00;102368.94;5024887;28;20203;-75
2022/01/25 02:10:43;;;;;;;18.13;7.90;;;;;;;2.80;100.00;102369.88;5021975;28;20739;-76
2022/01/25 02:13:12;;;;;;;17.40;7.13;;;;;;;2.80;100.00;102356.13;5025961;28;20208;-76
2022/01/25 02:15:40;;;;;;;20.97;8.13;;;;;;;2.80;100.00;102354.41;5023888;28;20672;-76
2022/01/25 02:23:40;;;;;;;19.87;8.33;;;;;;;2.82;100.00;102354.47;5021462;28;20205;-76
2022/01/25 02:26:09;;;;;;;15.83;7.60;;;;;;;2.83;100.00;102346.78;5024187;28;20192;-76
2022/01/25 02:28:37;;;;;;;19.47;7.97;;;;;;;2.83;100.00;102346.78;5021286;28;20224;-76
2022/01/25 02:31:05;;;;;;;19.10;8.20;;;;;;;2.84;100.00;102350.22;5022284;28;20223;-76
2022/01/25 02:33:32;;;;;;;19.40;7.67;;;;;;;2.86;100.00;102347.72;5022012;28;20212;-76
2022/01/25 02:36:01;;;;;;;22.23;9.13;;;;;;;2.85;100.00;102354.56;5023458;28;20672;-75
2022/01/25 02:38:31;;;;;;;18.83;8.37;;;;;;;2.80;100.00;102353.53;5023741;28;20212;-75
2022/01/25 02:40:58;;;;;;;17.70;7.87;;;;;;;2.80;100.00;102351.84;5022863;28;20703;-76
2022/01/25 02:43:26;;;;;;;13.63;7.47;;;;;;;2.74;100.00;102343.88;5024027;28;20191;-76
2022/01/25 02:46:17;;;;;;;15.90;8.50;;;;;;;2.75;100.00;102343.06;5027008;28;20711;-76
2022/01/25 02:48:55;;;;;;;15.20;7.73;;;;;;;2.70;100.00;102339.47;5022218;28;20431;-76
2022/01/25 02:51:26;;;;;;;16.50;7.80;;;;;;;2.69;100.00;102330.00;5019197;28;20982;-76
2022/01/25 02:53:53;;;;;;;12.63;7.10;;;;;;;2.69;100.00;102337.72;5024752;28;20210;-75
2022/01/25 02:56:19;;;;;;;16.53;8.20;;;;;;;2.66;100.00;102335.03;5021174;28;20208;-76
2022/01/25 02:58:46;;;;;;;17.53;8.80;;;;;;;2.68;100.00;102329.94;5021648;28;20208;-76
2022/01/25 03:01:13;;;;;;;15.63;8.50;;;;;;;2.66;100.00;102322.16;5018327;28;20229;-76
2022/01/25 03:03:40;;;;;;;18.37;8.60;;;;;;;2.66;100.00;102324.75;5024196;28;20205;-76
2022/01/25 03:06:06;;;;;;;17.73;8.67;;;;;;;2.64;100.00;102311.81;5022186;28;20207;-76
2022/01/25 03:08:34;;;;;;;16.77;9.03;;;;;;;2.66;100.00;102317.00;5023011;28;20680;-76
2022/01/25 03:11:01;;;;;;;18.17;8.90;;;;;;;2.66;100.00;102309.28;5021005;28;20238;-76
2022/01/25 03:13:32;;;;;;;17.47;8.87;;;;;;;2.66;100.00;102314.44;5024854;28;20571;-76
2022/01/25 03:16:03;;;;;;;20.10;9.50;;;;;;;2.64;100.00;102318.66;5025844;28;20229;-76
2022/01/25 03:18:44;;;;;;;21.83;10.10;;;;;;;2.63;100.00;102315.19;5026216;28;20209;-76
2022/01/25 03:21:20;;;;;;;19.20;9.40;;;;;;;2.63;100.00;102317.78;5026913;28;20604;-76
2022/01/25 03:23:49;;;;;;;19.00;10.33;;;;;;;2.61;100.00;102326.28;5017678;28;20661;-76
2022/01/25 03:26:16;;;;;;;21.53;10.23;;;;;;;2.61;100.00;102329.72;5018884;28;20627;-76
2022/01/25 03:28:42;;;;;;;19.20;10.60;;;;;;;2.60;100.00;102333.16;5022391;28;20572;-76
2022/01/25 03:31:09;;;;;;;19.23;10.50;;;;;;;2.59;100.00;102335.66;5022134;28;20211;-76
2022/01/25 03:33:36;;;;;;;16.57;10.47;;;;;;;2.58;100.00;102341.63;5021770;28;20222;-76
2022/01/25 03:36:03;;;;;;;21.70;9.87;;;;;;;2.58;100.00;102336.47;5027674;28;20408;-76
2022/01/25 03:38:30;;;;;;;20.93;10.53;;;;;;;2.57;100.00;102340.75;5021525;28;20216;-76
2022/01/25 03:40:58;;;;;;;23.10;11.07;;;;;;;2.56;100.00;102330.41;5025904;28;20223;-76
2022/01/25 03:43:24;;;;;;;21.07;10.73;;;;;;;2.56;100.00;102327.81;5022114;28;20203;-76
2022/01/25 03:46:00;;;;;;;21.13;10.63;;;;;;;2.56;100.00;102322.69;5022786;28;20216;-76
2022/01/25 03:51:11;;;;;;;24.57;11.53;;;;;;;2.54;100.00;102321.75;5023020;28;20684;-76
2022/01/25 03:53:37;;;;;;;22.97;11.23;;;;;;;2.53;100.00;102320.00;5022843;28;20577;-76
2022/01/25 03:56:05;;;;;;;21.77;11.00;;;;;;;2.52;100.00;102324.28;5020816;28;20207;-75
2022/01/25 03:58:32;;;;;;;23.87;11.23;;;;;;;2.52;100.00;102318.25;5023723;28;20212;-76
2022/01/25 04:00:58;;;;;;;24.67;11.23;;;;;;;2.50;100.00;102325.94;5023049;28;20219;-76
2022/01/25 04:03:30;;;;;;;21.23;11.43;;;;;;;2.51;100.00;102324.22;5023908;28;20192;-76
2022/01/25 04:05:58;;;;;;;26.00;11.83;;;;;;;2.51;100.00;102322.50;5022370;28;20331;-76
2022/01/25 04:08:24;;;;;;;24.30;11.33;;;;;;;2.51;100.00;102313.91;5023099;28;20204;-76
2022/01/25 04:10:50;;;;;;;26.00;11.47;;;;;;;2.49;100.00;102319.00;5020708;28;20224;-76
2022/01/25 04:13:19;;;;;;;27.33;12.27;;;;;;;2.48;100.00;102317.28;5023012;28;20581;-76
2022/01/25 04:15:46;;;;;;;24.97;11.40;;;;;;;2.48;100.00;102319.84;5021216;28;20200;-75
2022/01/25 04:18:28;;;;;;;25.33;11.17;;;;;;;2.49;100.00;102324.16;5024024;28;20315;-76
2022/01/25 04:21:05;;;;;;;21.17;10.63;;;;;;;2.46;100.00;102322.38;5022273;28;20708;-76
2022/01/25 04:26:16;;;;;;;26.57;11.23;;;;;;;2.45;100.00;102310.31;5022446;28;20208;-76
2022/01/25 04:28:44;;;;;;;25.70;11.43;;;;;;;2.43;100.00;102311.97;5023256;28;20453;-76
2022/01/25 04:31:10;;;;;;;23.33;11.67;;;;;;;2.44;100.00;102307.69;5020787;28;20235;-75
2022/01/25 04:33:43;;;;;;;26.13;11.90;;;;;;;2.43;100.00;102308.53;5025274;28;20195;-76
2022/01/25 04:36:39;;;;;;;26.90;11.33;;;;;;;2.43;100.00;102311.09;5025624;28;20210;-75
2022/01/25 04:50:24;;;;;;;24.47;11.67;;;;;;;2.38;100.00;102312.63;5020572;28;20216;-76
2022/01/25 04:52:58;;;;;;;27.07;11.13;;;;;;;2.36;100.00;102301.41;5024850;28;20207;-76
2022/01/25 04:55:31;;;;;;;21.43;10.97;;;;;;;2.34;100.00;102303.03;5027104;28;20290;-76
2022/01/25 04:58:04;;;;;;;22.13;10.53;;;;;;;2.33;100.00;102307.31;5026413;28;20208;-76
2022/01/25 05:00:32;;;;;;;25.10;11.30;;;;;;;2.33;100.00;102312.47;5025944;28;20231;-76
2022/01/25 05:03:08;;;;;;;23.50;11.50;;;;;;;2.32;100.00;102307.25;5025965;28;20205;-76
2022/01/25 05:05:40;;;;;;;24.53;10.77;;;;;;;2.32;100.00;102312.41;5024525;28;20211;-76
2022/01/25 05:08:17;;;;;;;25.30;11.13;;;;;;;2.29;100.00;102308.03;5021423;28;20287;-76
2022/01/25 05:10:51;;;;;;;26.87;11.67;;;;;;;2.29;100.00;102313.19;5025927;28;20366;-76
2022/01/25 05:13:36;;;;;;;25.60;11.40;;;;;;;2.31;100.00;102310.66;5017337;28;20980;-76
2022/01/25 05:16:13;;;;;;;22.93;11.27;;;;;;;2.28;100.00;102309.72;5025442;28;20680;-76
2022/01/25 05:18:43;;;;;;;25.67;11.90;;;;;;;2.27;100.00;102307.97;5021232;28;20208;-76
2022/01/25 05:23:55;;;;;;;27.33;12.40;;;;;;;2.26;100.00;102313.94;5018111;28;20567;-76
2022/01/25 05:26:22;;;;;;;26.73;11.93;;;;;;;2.26;100.00;102307.91;5021182;28;20756;-76
2022/01/25 05:28:48;;;;;;;28.63;12.43;;;;;;;2.24;100.00;102314.72;5019835;28;20569;-76
2022/01/25 05:31:16;;;;;;;24.50;11.00;;;;;;;2.24;100.00;102323.31;5020616;28;21021;-76
2022/01/25 05:33:43;;;;;;;29.47;12.77;;;;;;;2.23;100.00;102334.44;5023243;28;20192;-76
2022/01/25 05:36:09;;;;;;;32.70;17.57;;;;;;;2.23;100.00;102334.44;5024615;28;20595;-76
2022/01/25 05:38:36;;;;;;;29.57;12.73;;;;;;;2.22;100.00;102342.09;5024675;28;20199;-76
2022/01/25 05:41:03;;;;;;;28.33;11.70;;;;;;;2.22;100.00;102336.97;5025907;28;20219;-76
2022/01/25 05:44:12;;;;;;;29.43;13.20;;;;;;;2.20;100.00;102338.56;5024925;28;20284;-76
2022/01/25 05:46:45;;;;;;;26.27;11.80;;;;;;;2.18;100.00;102333.41;5021093;28;20680;-76
2022/01/25 05:49:11;;;;;;;26.10;11.00;;;;;;;2.14;100.00;102331.53;5025474;28;20208;-76
2022/01/25 05:51:37;;;;;;;23.50;11.03;;;;;;;2.13;100.00;102324.63;5019976;28;20229;-76
2022/01/25 05:54:04;;;;;;;22.13;11.20;;;;;;;2.13;100.00;102321.16;5020453;28;20799;-76
2022/01/25 05:56:30;;;;;;;31.10;16.00;;;;;;;2.12;100.00;102325.44;5025823;28;20200;-75
2022/01/25 05:58:56;;;;;;;24.83;11.00;;;;;;;2.11;100.00;102330.53;5021279;28;20212;-76
2022/01/25 06:01:23;;;;;;;22.77;10.83;;;;;;;2.08;100.00;102326.16;5024283;28;20227;-76
2022/01/25 06:03:51;;;;;;;27.20;11.53;;;;;;;2.08;100.00;102334.75;5019157;28;20235;-76
2022/01/25 06:06:17;;;;;;;20.87;10.10;;;;;;;2.06;100.00;102330.38;5021670;28;21200;-76
2022/01/25 06:08:44;;;;;;;23.37;10.60;;;;;;;2.04;100.00;102332.00;5016439;28;20596;-75
2022/01/25 06:11:10;;;;;;;24.90;11.17;;;;;;;2.02;100.00;102337.13;5022688;28;20223;-75
2022/01/25 06:13:36;;;;;;;21.30;9.70;;;;;;;2.02;100.00;102331.06;5020287;28;20218;-74
2022/01/25 06:16:03;;;;;;;23.77;10.33;;;;;;;2.01;100.00;102331.91;5028065;28;20203;-73
2022/01/25 06:18:30;;;;;;;23.40;10.63;;;;;;;1.98;100.00;102330.09;5018287;28;20203;-74
2022/01/25 06:20:57;;;;;;;24.30;10.50;;;;;;;1.98;100.00;102329.22;5020586;28;20794;-75
2022/01/25 06:23:24;;;;;;;22.47;11.00;;;;;;;1.96;100.00;102336.00;5020614;28;20200;-74
2022/01/25 06:25:50;;;;;;;23.17;10.40;;;;;;;1.97;100.00;102336.06;5019790;28;20214;-74
2022/01/25 06:28:18;;;;;;;24.57;10.60;;;;;;;1.96;100.00;102325.72;5026801;28;20255;-74
2022/01/25 06:30:45;;;;;;;28.87;12.83;;;;;;;1.96;100.00;102339.47;5019031;28;20674;-74
2022/01/25 06:33:11;;;;;;;25.20;12.37;;;;;;;1.94;100.00;102335.09;5022639;28;20485;-74
2022/01/25 06:35:38;;;;;;;42.17;19.57;;;;;;;1.95;100.00;102347.13;5022994;28;20608;-72
2022/01/25 06:38:06;;;;;;;57.77;26.23;;;;;;;1.95;100.00;102350.56;5017274;28;20211;-72
2022/01/25 06:40:32;;;;;;;54.07;25.60;;;;;;;1.93;100.00;102348.75;5017643;28;20215;-73
2022/01/25 06:42:59;;;;;;;35.77;16.07;;;;;;;1.93;100.00;102348.75;5014772;28;20227;-74
2022/01/25 06:45:27;;;;;;;31.17;15.17;;;;;;;1.91;100.00;102348.69;5019321;28;20207;-74
2022/01/25 06:47:53;;;;;;;31.37;14.03;;;;;;;1.90;100.00;102352.09;5022183;28;20299;-74
2022/01/25 06:50:22;;;;;;;26.33;13.00;;;;;;;1.88;100.00;102351.16;5020135;28;20299;-73
2022/01/25 06:52:49;;;;;;;39.97;17.97;;;;;;;1.88;100.00;102354.63;5022229;28;20283;-73
2022/01/25 06:55:19;;;;;;;34.17;14.33;;;;;;;1.87;100.00;102354.56;5023780;28;20588;-72
2022/01/25 06:57:46;;;;;;;31.60;13.77;;;;;;;1.88;100.00;102349.47;5017554;28;20330;-74
2022/01/25 07:00:16;;;;;;;25.57;12.30;;;;;;;1.88;100.00;102356.28;5025779;28;20206;-74
2022/01/25 07:02:42;;;;;;;26.10;12.23;;;;;;;1.86;100.00;102350.22;5018702;28;20211;-73
2022/01/25 07:05:09;;;;;;;32.40;14.43;;;;;;;1.87;100.00;102364.84;5019214;28;20490;-74
2022/01/25 07:07:36;;;;;;;27.10;11.57;;;;;;;1.87;100.00;102370.00;5018567;28;20196;-74
2022/01/25 07:10:04;;;;;;;32.47;14.97;;;;;;;1.85;100.00;102372.50;5020544;28;20265;-73
2022/01/25 07:12:32;;;;;;;30.83;13.80;;;;;;;1.86;100.00;102375.94;5024097;28;20211;-74
2022/01/25 07:14:58;;;;;;;31.07;11.20;;;;;;;1.84;100.00;102368.16;5021036;28;20741;-74
2022/01/25 07:17:25;;;;;;;23.80;10.87;;;;;;;1.84;100.00;102369.88;5020758;28;20207;-73
2022/01/25 07:19:51;;;;;;;24.50;10.37;;;;;;;1.85;100.00;102379.34;5019833;28;20204;-72
2022/01/25 07:22:18;;;;;;;21.40;9.80;;;;;;;1.82;100.00;102369.81;5019759;28;20223;-74
2022/01/25 07:24:45;;;;;;;21.67;9.77;;;;;;;1.83;100.00;102366.44;5018007;28;20208;-72
2022/01/25 07:27:11;;;;;;;24.40;9.57;;;;;;;1.84;100.00;102368.16;5019938;28;20207;-74
2022/01/25 07:29:39;;;;;;;21.23;8.77;;;;;;;1.80;100.00;102366.31;5020138;28;20204;-73
2022/01/25 07:32:06;;;;;;;24.07;10.00;;;;;;;1.81;100.00;102365.50;5021613;28;20230;-73
2022/01/25 07:34:32;;;;;;;24.63;10.23;;;;;;;1.80;100.00;102358.59;5019299;28;20208;-73
2022/01/25 07:36:59;;;;;;;20.03;9.20;;;;;;;1.83;100.00;102350.09;5022212;28;20571;-74
2022/01/25 07:39:26;;;;;;;22.07;9.23;;;;;;;1.81;100.00;102344.94;5017590;28;20192;-74
2022/01/25 07:41:57;;;;;;;22.53;9.67;;;;;;;1.79;100.00;102349.09;5019339;28;20716;-74
2022/01/25 07:44:28;;;;;;;21.60;9.60;;;;;;;1.75;100.00;102352.41;5016139;28;20199;-74
2022/01/25 07:46:57;;;;;;;18.97;9.07;;;;;;;1.72;100.00;102353.97;5019860;28;20227;-74
2022/01/25 07:49:24;;;;;;;20.93;8.43;;;;;;;1.64;100.00;102340.84;5019574;28;20475;-74
2022/01/25 07:51:51;;;;;;;28.57;10.50;;;;;;;1.61;100.00;102344.16;5019096;28;20580;-73
2022/01/25 07:54:17;;;;;;;25.87;9.83;;;;;;;1.61;100.00;102338.16;5020758;28;20641;-74
2022/01/25 07:56:43;;;;;;;25.20;9.37;;;;;;;1.57;100.00;102338.84;5019991;28;20278;-74
2022/01/25 07:59:10;;;;;;;21.10;9.03;;;;;;;1.53;100.00;102340.44;5020797;28;20202;-74
2022/01/25 08:01:36;;;;;;;23.40;8.77;;;;;;;1.52;100.00;102347.25;5020661;28;20526;-74
2022/01/25 08:04:05;;;;;;;22.07;9.00;;;;;;;1.50;100.00;102345.44;5021315;28;20601;-73
2022/01/25 08:06:31;;;;;;;25.53;9.57;;;;;;;1.45;100.00;102347.84;5019192;28;20209;-72
2022/01/25 08:08:58;;;;;;;28.10;10.10;;;;;;;1.49;100.00;102339.41;5019073;28;20206;-73
2022/01/25 08:11:24;;;;;;;29.57;10.57;;;;;;;1.50;100.00;102340.31;5016812;28;20677;-74
2022/01/25 08:13:52;;;;;;;27.00;10.07;;;;;;;1.55;100.00;102343.03;5021507;28;20212;-73
2022/01/25 08:16:19;;;;;;;29.37;10.27;;;;;;;1.58;100.00;102346.59;5018972;28;20259;-74
2022/01/25 08:18:45;;;;;;;26.40;10.37;;;;;;;1.57;100.00;102347.44;5021081;28;20200;-74
2022/01/25 08:21:13;;;;;;;27.47;10.40;;;;;;;1.58;100.00;102345.72;5022617;28;20231;-72
2022/01/25 08:23:39;;;;;;;30.30;10.37;;;;;;;1.61;100.00;102351.00;5018376;28;20367;-74
2022/01/25 08:26:05;;;;;;;29.80;10.73;;;;;;;1.64;100.00;102345.97;5017778;28;20212;-72
2022/01/25 08:28:32;;;;;;;29.23;10.83;;;;;;;1.64;100.00;102346.84;5025247;28;20210;-73
2022/01/25 08:30:59;;;;;;;31.40;10.47;;;;;;;1.64;100.00;102344.28;5018982;28;20428;-72
2022/01/25 08:33:25;;;;;;;27.13;9.70;;;;;;;1.68;100.00;102346.13;5019367;28;20204;-73
2022/01/25 08:35:51;;;;;;;32.73;10.40;;;;;;;1.70;100.00;102341.06;5021091;28;20212;-73
2022/01/25 08:38:19;;;;;;;32.57;10.30;;;;;;;1.73;100.00;102340.31;5016492;28;20212;-72
2022/01/25 08:40:46;;;;;;;29.53;10.63;;;;;;;1.76;100.00;102341.31;5019136;28;20771;-74
2022/01/25 08:43:12;;;;;;;31.33;10.17;;;;;;;1.70;100.00;102347.06;5019645;28;20219;-74
2022/01/25 08:45:38;;;;;;;23.97;9.57;;;;;;;1.71;100.00;102355.69;5022563;28;20210;-74
2022/01/25 08:48:05;;;;;;;30.20;9.87;;;;;;;1.65;100.00;102355.44;5019940;28;20211;-74
2022/01/25 08:50:32;;;;;;;34.70;10.53;;;;;;;1.72;100.00;102348.84;5021131;28;20637;-74
2022/01/25 08:52:58;;;;;;;32.40;10.87;;;;;;;1.70;100.00;102347.06;5015415;28;20208;-72
2022/01/25 08:55:26;;;;;;;31.77;11.17;;;;;;;1.70;100.00;102348.78;5018765;28;20216;-73
2022/01/25 08:57:52;;;;;;;28.87;9.77;;;;;;;1.69;100.00;102350.47;5017765;28;20216;-74
2022/01/25 09:00:18;;;;;;;32.23;10.97;;;;;;;1.68;100.00;102346.13;5020591;28;20607;-74
2022/01/25 09:02:45;;;;;;;33.33;11.10;;;;;;;1.69;100.00;102340.19;5017047;28;20294;-73
2022/01/25 09:05:12;;;;;;;32.80;11.17;;;;;;;1.73;100.00;102346.31;5019118;28;20211;-73
2022/01/25 09:07:39;;;;;;;35.33;10.93;;;;;;;1.76;100.00;102345.53;5018744;28;20200;-74
2022/01/25 09:10:08;;;;;;;29.43;11.17;;;;;;;1.76;100.00;102346.44;5016817;28;20200;-74
2022/01/25 09:12:36;;;;;;;31.13;10.40;;;;;;;1.75;100.00;102352.41;5019803;28;20314;-74
2022/01/25 09:15:03;;;;;;;27.23;9.63;;;;;;;1.81;100.00;102350.06;5019259;28;20608;-72
2022/01/25 09:17:29;;;;;;;31.17;10.63;;;;;;;1.79;100.00;102361.97;5021514;28;20196;-73
2022/01/25 09:19:56;;;;;;;38.87;11.27;;;;;;;1.82;100.00;102349.22;5019644;28;20214;-73
2022/01/25 09:22:22;;;;;;;36.07;11.30;;;;;;;1.84;100.00;102342.44;5021887;28;20192;-72
2022/01/25 09:24:49;;;;;;;41.87;10.67;;;;;;;1.82;100.00;102348.38;5021531;28;20654;-74
2022/01/25 09:27:15;;;;;;;31.33;12.13;;;;;;;1.85;100.00;102353.63;5024908;28;20664;-74
2022/01/25 09:29:43;;;;;;;27.10;11.33;;;;;;;1.86;100.00;102353.66;5020355;28;20201;-74
2022/01/25 09:32:09;;;;;;;31.67;11.07;;;;;;;1.84;100.00;102355.31;5025176;28;20242;-74
2022/01/25 09:34:36;;;;;;;33.47;11.67;;;;;;;1.82;100.00;102366.38;5022124;28;20215;-73
2022/01/25 09:37:03;;;;;;;34.60;11.40;;;;;;;1.83;100.00;102362.97;5020991;28;20208;-71
2022/01/25 09:39:30;;;;;;;28.97;11.03;;;;;;;1.85;100.00;102359.66;5022758;28;20200;-74
2022/01/25 09:41:57;;;;;;;38.20;12.97;;;;;;;1.85;100.00;102366.50;5023068;28;20499;-73
2022/01/25 09:44:24;;;;;;;29.47;10.83;;;;;;;1.79;100.00;102361.09;5022027;28;20214;-74
2022/01/25 09:46:55;;;;;;;28.17;10.53;;;;;;;1.78;100.00;102349.06;5019806;28;20215;-73
2022/01/25 09:49:21;;;;;;;28.00;10.10;;;;;;;1.78;100.00;102354.22;5024644;28;20207;-73
2022/01/25 09:51:49;;;;;;;28.90;9.67;;;;;;;1.76;100.00;102359.31;5020625;28;20216;-72
2022/01/25 09:54:16;;;;;;;25.30;9.27;;;;;;;1.75;100.00;102360.13;5026359;28;20203;-74
2022/01/25 09:56:42;;;;;;;26.40;9.00;;;;;;;1.74;100.00;102363.50;5020355;28;20205;-74
2022/01/25 09:59:09;;;;;;;26.07;10.23;;;;;;;1.73;100.00;102366.03;5022633;28;20450;-74
2022/01/25 10:01:37;;;;;;;24.00;10.33;;;;;;;1.74;100.00;102376.34;5020621;28;20227;-72
2022/01/25 10:04:25;;;;;;;27.30;10.43;;;;;;;1.80;100.00;102362.88;5021888;28;20223;-73
2022/01/25 10:06:51;;;;;;;27.83;9.97;;;;;;;1.86;100.00;102356.22;5019715;28;20211;-74
2022/01/25 10:09:19;;;;;;;24.93;10.77;;;;;;;1.95;100.00;102358.28;5023287;28;20218;-74
2022/01/25 10:11:47;;;;;;;31.67;11.03;;;;;;;2.00;100.00;102359.31;5023503;28;20216;-73
2022/01/25 10:14:14;;;;;;;30.00;11.07;;;;;;;2.05;100.00;102360.38;5019303;28;20203;-73
2022/01/25 10:16:42;;;;;;;38.30;11.90;;;;;;;2.15;100.00;102353.88;5021558;28;20583;-73
2022/01/25 10:19:12;;;;;;;37.73;12.47;;;;;;;2.25;100.00;102353.38;5020951;28;20208;-73
2022/01/25 10:21:40;;;;;;;30.30;12.23;;;;;;;2.35;100.00;102349.41;5019781;28;20235;-72
2022/01/25 10:24:09;;;;;;;35.40;11.67;;;;;;;2.40;100.00;102350.47;5019147;28;20203;-74
2022/01/25 10:26:39;;;;;;;40.13;12.83;;;;;;;2.42;100.00;102353.09;5021983;28;20258;-74
2022/01/25 10:29:06;;;;;;;38.47;13.10;;;;;;;2.45;100.00;102356.66;5019984;28;20232;-73
2022/01/25 10:31:36;;;;;;;36.83;12.20;;;;;;;2.57;100.00;102353.63;5024388;28;20235;-74
2022/01/25 10:34:03;;;;;;;37.40;12.13;;;;;;;2.63;100.00;102353.81;5019811;28;20274;-73
2022/01/25 10:36:31;;;;;;;39.57;13.23;;;;;;;2.69;100.00;102362.59;5022876;28;20203;-73
2022/01/25 10:38:58;;;;;;;37.00;11.93;;;;;;;2.63;100.00;102355.53;5018019;28;20196;-72
2022/01/25 10:41:27;;;;;;;32.27;10.90;;;;;;;2.64;100.00;102355.59;5022993;28;20232;-74
2022/01/25 10:43:56;;;;;;;35.60;10.63;;;;;;;2.62;100.00;102353.78;5022839;28;20212;-74
2022/01/25 10:46:24;;;;;;;29.67;11.03;;;;;;;2.73;100.00;102339.56;5021188;28;20573;-73
2022/01/25 10:48:54;;;;;;;28.20;11.77;;;;;;;2.78;100.00;102337.13;5020515;28;20262;-72
2022/01/25 10:51:23;;;;;;;29.83;11.73;;;;;;;2.79;100.00;102334.63;5019816;28;20238;-74
2022/01/25 10:54:07;;;;;;;27.33;10.83;;;;;;;2.74;100.00;102328.44;5021765;28;20200;-74
2022/01/25 10:56:35;;;;;;;30.40;10.63;;;;;;;2.79;100.00;102329.47;5019141;28;20239;-73
2022/01/25 10:59:04;;;;;;;28.67;11.13;;;;;;;2.75;100.00;102332.78;5022099;28;20215;-73
2022/01/25 11:01:32;;;;;;;25.53;9.53;;;;;;;2.73;100.00;102328.41;5019645;28;20761;-73
2022/01/25 11:04:06;;;;;;;30.57;9.80;;;;;;;2.70;100.00;102329.16;5020230;28;20211;-74
2022/01/25 11:06:32;;;;;;;34.50;14.93;;;;;;;2.74;100.00;102333.59;5022450;28;20228;-74
2022/01/25 11:09:02;;;;;;;27.20;11.00;;;;;;;2.78;100.00;102329.41;5018665;28;20655;-73
2022/01/25 11:11:34;;;;;;;27.67;12.17;;;;;;;2.77;100.00;102328.53;5020551;28;20220;-74
2022/01/25 11:14:50;;;;;;;33.27;13.50;;;;;;;2.79;100.00;102319.16;5019618;28;20324;-73
2022/01/25 11:16:48;;;;;;;36.83;15.97;;;;;;;2.72;100.00;102314.63;5020899;28;20278;-74
2022/01/25 11:19:15;;;;;;;44.30;20.50;;;;;;;2.69;100.00;102308.50;5018393;28;20209;-74
2022/01/25 11:21:43;;;;;;;25.83;11.50;;;;;;;2.52;100.00;102308.81;5021473;28;20204;-74
2022/01/25 11:24:12;;;;;;;25.57;12.97;;;;;;;2.52;100.00;102305.38;5018343;28;20211;-74
2022/01/25 11:26:41;;;;;;;27.10;14.23;;;;;;;2.41;100.00;102302.41;5019478;28;20200;-74
2022/01/25 11:29:08;;;;;;;38.00;18.43;;;;;;;2.44;100.00;102303.38;5019411;28;20212;-74
2022/01/25 11:31:38;;;;;;;27.07;12.37;;;;;;;2.45;100.00;102302.59;5023993;28;20607;-72
2022/01/25 11:34:08;;;;;;;32.40;12.07;;;;;;;2.57;100.00;102294.41;5020900;28;20200;-73
2022/01/25 11:36:43;;;;;;;34.10;13.63;;;;;;;2.74;100.00;102294.94;5021195;28;20700;-74
2022/01/25 11:39:11;;;;;;;30.33;12.73;;;;;;;2.79;100.00;102285.66;5022330;28;20199;-74
2022/01/25 11:41:43;;;;;;;37.40;14.43;;;;;;;2.87;100.00;102287.59;5018288;28;20231;-73
2022/01/25 11:44:11;;;;;;;35.00;13.47;;;;;;;2.95;100.00;102289.59;5021608;28;20246;-73
2022/01/25 11:46:42;;;;;;;32.97;12.47;;;;;;;2.93;100.00;102285.25;5017695;28;20205;-74
2022/01/25 11:49:16;;;;;;;36.23;12.80;;;;;;;3.06;100.00;102296.81;5021125;28;20223;-74
2022/01/25 11:51:43;;;;;;;36.67;12.70;;;;;;;3.13;100.00;102289.34;5017470;28;20219;-74
2022/01/25 11:54:10;;;;;;;30.17;11.60;;;;;;;3.15;100.00;102290.25;5020741;28;20206;-73
2022/01/25 11:56:38;;;;;;;27.97;10.40;;;;;;;3.13;100.00;102291.00;5015415;28;20565;-73
2022/01/25 11:59:06;;;;;;;23.70;9.47;;;;;;;3.03;100.00;102288.16;5021849;28;20200;-74
2022/01/25 12:01:35;;;;;;;19.57;9.43;;;;;;;3.09;100.00;102282.31;5019115;28;20229;-73
2022/01/25 12:04:04;;;;;;;22.07;10.13;;;;;;;3.12;100.00;102281.56;5015239;28;20213;-73
2022/01/25 12:06:34;;;;;;;21.97;10.37;;;;;;;3.15;100.00;102282.53;5020359;28;20211;-74
2022/01/25 12:09:14;;;;;;;21.07;10.23;;;;;;;3.21;100.00;102274.97;5018272;28;20195;-74
2022/01/25 12:11:45;;;;;;;21.07;9.53;;;;;;;3.14;100.00;102273.03;5021880;28;20226;-75
2022/01/25 12:14:25;;;;;;;18.17;8.23;;;;;;;3.13;100.00;102270.41;5020865;28;20460;-75
2022/01/25 12:16:56;;;;;;;12.27;6.77;;;;;;;3.10;100.00;102278.91;5018901;28;20204;-75
2022/01/25 12:19:36;;;;;;;15.50;7.60;;;;;;;3.02;100.00;102273.50;5024604;28;20210;-75
2022/01/25 12:22:11;;;;;;;15.20;7.33;;;;;;;2.96;100.00;102269.91;5022340;28;20220;-75
2022/01/25 12:24:51;;;;;;;13.07;6.87;;;;;;;3.10;100.00;102267.75;5023039;28;20203;-75